sensor_id;sensor_type;location;lat;lon;timestamp;P1;durP1;ratioP1;P2;durP2;ratioP2
5758;SDS011;2904;48.788;9.196;2022-12-11T00:02:23;29.80;;;14.90;;
5758;SDS011;2904;48.788;9.196;2022-12-11T00:04:49;27.57;;;14.63;;
5758;SDS011;2904;48.788;9.196;2022-12-11T00:07:15;32.80;;;14.83;;
5758;SDS011;2904;48.788;9.196;2022-12-11T00:09:41;26.67;;;13.63;;
5758;SDS011;2904;48.788;9.196;2022-12-11T00:12:07;27.70;;;14.50;;
5758;SDS011;2904;48.788;9.196;2022-12-11T00:14:32;27.33;;;14.83;;
5758;SDS011;2904;48.788;9.196;2022-12-11T00:16:59;28.17;;;15.07;;
5758;SDS011;2904;48.788;9.196;2022-12-11T00:19:25;30.37;;;15.33;;
5758;SDS011;2904;48.788;9.196;2022-12-11T00:21:50;29.30;;;14.37;;
5758;SDS011;2904;48.788;9.196;2022-12-11T00:24:16;26.87;;;14.93;;
5758;SDS011;2904;48.788;9.196;2022-12-11T00:26:42;27.07;;;14.97;;
5758;SDS011;2904;48.788;9.196;2022-12-11T00:29:08;30.33;;;15.27;;
5758;SDS011;2904;48.788;9.196;2022-12-11T00:31:38;33.60;;;15.90;;
5758;SDS011;2904;48.788;9.196;2022-12-11T00:34:04;31.87;;;15.37;;
5758;SDS011;2904;48.788;9.196;2022-12-11T00:36:31;28.20;;;14.87;;
5758;SDS011;2904;48.788;9.196;2022-12-11T00:38:57;28.30;;;15.23;;
5758;SDS011;2904;48.788;9.196;2022-12-11T00:41:23;29.97;;;15.07;;
5758;SDS011;2904;48.788;9.196;2022-12-11T00:43:49;27.67;;;15.13;;
5758;SDS011;2904;48.788;9.196;2022-12-11T00:46:15;30.87;;;15.37;;
5758;SDS011;2904;48.788;9.196;2022-12-11T00:48:41;34.10;;;16.50;;
5758;SDS011;2904;48.788;9.196;2022-12-11T00:51:07;28.37;;;14.93;;
5758;SDS011;2904;48.788;9.196;2022-12-11T00:53:33;30.63;;;15.03;;
5758;SDS011;2904;48.788;9.196;2022-12-11T00:56:00;27.70;;;14.30;;
5758;SDS011;2904;48.788;9.196;2022-12-11T00:58:26;29.63;;;15.83;;
5758;SDS011;2904;48.788;9.196;2022-12-11T01:00:52;30.97;;;15.53;;
5758;SDS011;2904;48.788;9.196;2022-12-11T01:03:18;28.27;;;15.00;;
5758;SDS011;2904;48.788;9.196;2022-12-11T01:05:53;27.73;;;14.47;;
5758;SDS011;2904;48.788;9.196;2022-12-11T01:08:19;29.70;;;15.00;;
5758;SDS011;2904;48.788;9.196;2022-12-11T01:10:45;32.00;;;15.63;;
5758;SDS011;2904;48.788;9.196;2022-12-11T01:13:10;28.37;;;16.13;;
5758;SDS011;2904;48.788;9.196;2022-12-11T01:15:40;28.87;;;15.07;;
5758;SDS011;2904;48.788;9.196;2022-12-11T01:18:07;30.07;;;15.27;;
5758;SDS011;2904;48.788;9.196;2022-12-11T01:20:33;27.07;;;14.83;;
5758;SDS011;2904;48.788;9.196;2022-12-11T01:22:59;33.03;;;16.07;;
5758;SDS011;2904;48.788;9.196;2022-12-11T01:25:26;30.60;;;15.30;;
5758;SDS011;2904;48.788;9.196;2022-12-11T01:27:53;32.33;;;15.47;;
5758;SDS011;2904;48.788;9.196;2022-12-11T01:30:20;28.80;;;15.80;;
5758;SDS011;2904;48.788;9.196;2022-12-11T01:32:48;28.63;;;14.77;;
5758;SDS011;2904;48.788;9.196;2022-12-11T01:35:13;29.40;;;15.13;;
5758;SDS011;2904;48.788;9.196;2022-12-11T01:37:40;28.10;;;14.67;;
5758;SDS011;2904;48.788;9.196;2022-12-11T01:40:06;29.53;;;14.90;;
5758;SDS011;2904;48.788;9.196;2022-12-11T01:42:33;29.77;;;14.13;;
5758;SDS011;2904;48.788;9.196;2022-12-11T01:45:22;27.90;;;14.87;;
5758;SDS011;2904;48.788;9.196;2022-12-11T01:47:52;26.93;;;13.97;;
5758;SDS011;2904;48.788;9.196;2022-12-11T01:50:21;31.60;;;14.73;;
5758;SDS011;2904;48.788;9.196;2022-12-11T01:52:48;28.90;;;14.87;;
5758;SDS011;2904;48.788;9.196;2022-12-11T01:55:15;30.23;;;15.47;;
5758;SDS011;2904;48.788;9.196;2022-12-11T01:57:42;25.40;;;14.90;;
5758;SDS011;2904;48.788;9.196;2022-12-11T02:00:11;28.43;;;15.20;;
5758;SDS011;2904;48.788;9.196;2022-12-11T02:02:37;28.27;;;15.20;;
5758;SDS011;2904;48.788;9.196;2022-12-11T02:05:03;27.90;;;14.80;;
5758;SDS011;2904;48.788;9.196;2022-12-11T02:07:32;29.03;;;15.40;;
5758;SDS011;2904;48.788;9.196;2022-12-11T02:10:03;27.47;;;15.03;;
5758;SDS011;2904;48.788;9.196;2022-12-11T02:12:30;27.77;;;14.77;;
5758;SDS011;2904;48.788;9.196;2022-12-11T02:15:40;30.17;;;15.13;;
5758;SDS011;2904;48.788;9.196;2022-12-11T02:18:19;29.57;;;15.57;;
5758;SDS011;2904;48.788;9.196;2022-12-11T02:30:32;25.37;;;14.00;;
5758;SDS011;2904;48.788;9.196;2022-12-11T02:33:01;27.70;;;14.57;;
5758;SDS011;2904;48.788;9.196;2022-12-11T02:35:30;26.50;;;14.17;;
5758;SDS011;2904;48.788;9.196;2022-12-11T02:38:07;24.27;;;13.27;;
5758;SDS011;2904;48.788;9.196;2022-12-11T02:40:37;25.13;;;13.03;;
5758;SDS011;2904;48.788;9.196;2022-12-11T02:43:05;25.53;;;12.37;;
5758;SDS011;2904;48.788;9.196;2022-12-11T02:45:35;20.90;;;11.67;;
5758;SDS011;2904;48.788;9.196;2022-12-11T02:48:03;21.00;;;11.80;;
5758;SDS011;2904;48.788;9.196;2022-12-11T02:50:32;19.37;;;10.00;;
5758;SDS011;2904;48.788;9.196;2022-12-11T02:53:00;15.37;;;9.53;;
5758;SDS011;2904;48.788;9.196;2022-12-11T02:55:28;21.37;;;11.47;;
5758;SDS011;2904;48.788;9.196;2022-12-11T02:58:03;24.87;;;13.10;;
5758;SDS011;2904;48.788;9.196;2022-12-11T03:00:31;26.17;;;13.90;;
5758;SDS011;2904;48.788;9.196;2022-12-11T03:02:56;27.73;;;13.80;;
5758;SDS011;2904;48.788;9.196;2022-12-11T03:05:22;20.97;;;11.80;;
5758;SDS011;2904;48.788;9.196;2022-12-11T03:07:48;18.43;;;10.03;;
5758;SDS011;2904;48.788;9.196;2022-12-11T03:10:15;20.50;;;10.10;;
5758;SDS011;2904;48.788;9.196;2022-12-11T03:12:43;18.03;;;9.73;;
5758;SDS011;2904;48.788;9.196;2022-12-11T03:15:13;21.83;;;11.80;;
5758;SDS011;2904;48.788;9.196;2022-12-11T03:19:17;17.10;;;9.57;;
5758;SDS011;2904;48.788;9.196;2022-12-11T03:22:36;15.97;;;8.87;;
5758;SDS011;2904;48.788;9.196;2022-12-11T03:25:08;18.13;;;10.43;;
5758;SDS011;2904;48.788;9.196;2022-12-11T03:27:38;20.77;;;10.67;;
5758;SDS011;2904;48.788;9.196;2022-12-11T03:30:33;22.80;;;10.83;;
5758;SDS011;2904;48.788;9.196;2022-12-11T03:33:05;24.40;;;10.97;;
5758;SDS011;2904;48.788;9.196;2022-12-11T03:35:36;21.27;;;10.63;;
5758;SDS011;2904;48.788;9.196;2022-12-11T03:38:05;21.23;;;10.30;;
5758;SDS011;2904;48.788;9.196;2022-12-11T03:40:35;21.30;;;11.30;;
5758;SDS011;2904;48.788;9.196;2022-12-11T03:43:03;20.73;;;10.93;;
5758;SDS011;2904;48.788;9.196;2022-12-11T03:45:31;20.27;;;10.97;;
5758;SDS011;2904;48.788;9.196;2022-12-11T03:47:58;21.13;;;11.07;;
5758;SDS011;2904;48.788;9.196;2022-12-11T03:50:27;21.03;;;10.97;;
5758;SDS011;2904;48.788;9.196;2022-12-11T03:52:55;22.03;;;11.30;;
5758;SDS011;2904;48.788;9.196;2022-12-11T03:55:22;20.23;;;10.77;;
5758;SDS011;2904;48.788;9.196;2022-12-11T03:57:50;22.47;;;11.57;;
5758;SDS011;2904;48.788;9.196;2022-12-11T04:00:18;23.37;;;12.57;;
5758;SDS011;2904;48.788;9.196;2022-12-11T04:02:44;23.67;;;11.07;;
5758;SDS011;2904;48.788;9.196;2022-12-11T04:05:36;19.57;;;10.00;;
5758;SDS011;2904;48.788;9.196;2022-12-11T04:08:02;20.60;;;10.97;;
5758;SDS011;2904;48.788;9.196;2022-12-11T04:10:28;22.33;;;12.13;;
5758;SDS011;2904;48.788;9.196;2022-12-11T04:12:55;23.97;;;11.30;;
5758;SDS011;2904;48.788;9.196;2022-12-11T04:15:21;24.13;;;11.03;;
5758;SDS011;2904;48.788;9.196;2022-12-11T04:17:47;24.23;;;12.30;;
5758;SDS011;2904;48.788;9.196;2022-12-11T04:20:31;23.30;;;11.90;;
5758;SDS011;2904;48.788;9.196;2022-12-11T04:23:16;21.10;;;11.20;;
5758;SDS011;2904;48.788;9.196;2022-12-11T04:26:03;20.10;;;10.23;;
5758;SDS011;2904;48.788;9.196;2022-12-11T04:28:30;21.63;;;11.53;;
5758;SDS011;2904;48.788;9.196;2022-12-11T04:30:56;18.40;;;9.77;;
5758;SDS011;2904;48.788;9.196;2022-12-11T04:33:22;17.33;;;9.67;;
5758;SDS011;2904;48.788;9.196;2022-12-11T04:35:48;14.83;;;9.10;;
5758;SDS011;2904;48.788;9.196;2022-12-11T04:38:14;17.57;;;9.47;;
5758;SDS011;2904;48.788;9.196;2022-12-11T04:40:40;17.57;;;9.40;;
5758;SDS011;2904;48.788;9.196;2022-12-11T04:43:06;16.33;;;9.40;;
5758;SDS011;2904;48.788;9.196;2022-12-11T04:45:32;17.10;;;9.20;;
5758;SDS011;2904;48.788;9.196;2022-12-11T04:47:59;17.33;;;9.90;;
5758;SDS011;2904;48.788;9.196;2022-12-11T04:50:25;20.50;;;9.77;;
5758;SDS011;2904;48.788;9.196;2022-12-11T04:52:55;20.67;;;10.63;;
5758;SDS011;2904;48.788;9.196;2022-12-11T04:55:21;20.13;;;10.57;;
5758;SDS011;2904;48.788;9.196;2022-12-11T04:57:47;18.40;;;9.97;;
5758;SDS011;2904;48.788;9.196;2022-12-11T05:00:13;19.67;;;10.63;;
5758;SDS011;2904;48.788;9.196;2022-12-11T05:02:40;18.83;;;9.87;;
5758;SDS011;2904;48.788;9.196;2022-12-11T05:05:07;17.17;;;9.50;;
5758;SDS011;2904;48.788;9.196;2022-12-11T05:07:34;16.13;;;9.30;;
5758;SDS011;2904;48.788;9.196;2022-12-11T05:10:01;18.43;;;9.87;;
5758;SDS011;2904;48.788;9.196;2022-12-11T05:12:27;18.37;;;9.83;;
5758;SDS011;2904;48.788;9.196;2022-12-11T05:14:53;18.23;;;9.93;;
5758;SDS011;2904;48.788;9.196;2022-12-11T05:17:20;18.87;;;10.37;;
5758;SDS011;2904;48.788;9.196;2022-12-11T05:19:46;18.57;;;9.00;;
5758;SDS011;2904;48.788;9.196;2022-12-11T05:22:13;19.43;;;9.73;;
5758;SDS011;2904;48.788;9.196;2022-12-11T05:24:39;20.60;;;9.83;;
5758;SDS011;2904;48.788;9.196;2022-12-11T05:27:05;18.70;;;9.63;;
5758;SDS011;2904;48.788;9.196;2022-12-11T05:29:30;15.83;;;9.27;;
5758;SDS011;2904;48.788;9.196;2022-12-11T05:31:56;19.30;;;10.30;;
5758;SDS011;2904;48.788;9.196;2022-12-11T05:34:21;17.87;;;9.40;;
5758;SDS011;2904;48.788;9.196;2022-12-11T05:36:47;20.20;;;9.47;;
5758;SDS011;2904;48.788;9.196;2022-12-11T05:39:13;18.30;;;9.90;;
5758;SDS011;2904;48.788;9.196;2022-12-11T05:41:39;19.83;;;9.93;;
5758;SDS011;2904;48.788;9.196;2022-12-11T05:44:04;18.20;;;9.33;;
5758;SDS011;2904;48.788;9.196;2022-12-11T05:46:30;18.23;;;9.77;;
5758;SDS011;2904;48.788;9.196;2022-12-11T05:48:57;19.10;;;10.10;;
5758;SDS011;2904;48.788;9.196;2022-12-11T05:51:25;19.07;;;9.73;;
5758;SDS011;2904;48.788;9.196;2022-12-11T05:53:52;21.63;;;10.40;;
5758;SDS011;2904;48.788;9.196;2022-12-11T05:56:37;20.87;;;9.93;;
5758;SDS011;2904;48.788;9.196;2022-12-11T05:59:03;19.57;;;10.17;;
5758;SDS011;2904;48.788;9.196;2022-12-11T06:01:34;20.57;;;10.70;;
5758;SDS011;2904;48.788;9.196;2022-12-11T06:04:03;17.83;;;9.97;;
5758;SDS011;2904;48.788;9.196;2022-12-11T06:09:53;19.37;;;10.07;;
5758;SDS011;2904;48.788;9.196;2022-12-11T06:12:19;23.13;;;11.20;;
5758;SDS011;2904;48.788;9.196;2022-12-11T06:14:44;19.73;;;10.33;;
5758;SDS011;2904;48.788;9.196;2022-12-11T06:17:10;19.47;;;10.67;;
5758;SDS011;2904;48.788;9.196;2022-12-11T06:19:36;22.70;;;11.33;;
5758;SDS011;2904;48.788;9.196;2022-12-11T06:22:02;25.73;;;12.47;;
5758;SDS011;2904;48.788;9.196;2022-12-11T06:24:28;23.90;;;12.80;;
5758;SDS011;2904;48.788;9.196;2022-12-11T06:26:54;27.57;;;12.70;;
5758;SDS011;2904;48.788;9.196;2022-12-11T06:29:20;31.63;;;14.27;;
5758;SDS011;2904;48.788;9.196;2022-12-11T06:31:46;24.70;;;13.50;;
5758;SDS011;2904;48.788;9.196;2022-12-11T06:34:12;24.87;;;12.63;;
5758;SDS011;2904;48.788;9.196;2022-12-11T06:36:38;25.37;;;13.77;;
5758;SDS011;2904;48.788;9.196;2022-12-11T06:39:04;29.43;;;14.40;;
5758;SDS011;2904;48.788;9.196;2022-12-11T06:41:30;29.37;;;14.30;;
5758;SDS011;2904;48.788;9.196;2022-12-11T06:43:56;32.53;;;16.03;;
5758;SDS011;2904;48.788;9.196;2022-12-11T06:46:23;27.27;;;14.30;;
5758;SDS011;2904;48.788;9.196;2022-12-11T06:48:48;27.40;;;14.80;;
5758;SDS011;2904;48.788;9.196;2022-12-11T06:51:16;27.93;;;15.30;;
5758;SDS011;2904;48.788;9.196;2022-12-11T06:53:44;28.80;;;14.50;;
5758;SDS011;2904;48.788;9.196;2022-12-11T06:56:16;35.70;;;15.90;;
5758;SDS011;2904;48.788;9.196;2022-12-11T06:58:42;36.30;;;18.03;;
5758;SDS011;2904;48.788;9.196;2022-12-11T07:01:21;34.93;;;17.63;;
5758;SDS011;2904;48.788;9.196;2022-12-11T07:03:50;34.83;;;17.93;;
5758;SDS011;2904;48.788;9.196;2022-12-11T07:06:17;32.00;;;16.83;;
5758;SDS011;2904;48.788;9.196;2022-12-11T07:08:43;28.87;;;15.63;;
5758;SDS011;2904;48.788;9.196;2022-12-11T07:11:10;32.17;;;16.37;;
5758;SDS011;2904;48.788;9.196;2022-12-11T07:13:38;33.40;;;17.57;;
5758;SDS011;2904;48.788;9.196;2022-12-11T07:16:04;31.83;;;15.90;;
5758;SDS011;2904;48.788;9.196;2022-12-11T07:18:35;26.33;;;13.97;;
5758;SDS011;2904;48.788;9.196;2022-12-11T07:21:02;27.37;;;14.23;;
5758;SDS011;2904;48.788;9.196;2022-12-11T07:23:28;26.57;;;14.13;;
5758;SDS011;2904;48.788;9.196;2022-12-11T07:25:54;24.87;;;12.83;;
5758;SDS011;2904;48.788;9.196;2022-12-11T07:28:20;27.93;;;14.23;;
5758;SDS011;2904;48.788;9.196;2022-12-11T07:30:46;26.83;;;14.43;;
5758;SDS011;2904;48.788;9.196;2022-12-11T07:33:12;31.13;;;13.87;;
5758;SDS011;2904;48.788;9.196;2022-12-11T07:35:37;25.63;;;13.27;;
5758;SDS011;2904;48.788;9.196;2022-12-11T07:38:03;25.27;;;12.53;;
5758;SDS011;2904;48.788;9.196;2022-12-11T07:40:30;24.83;;;12.97;;
5758;SDS011;2904;48.788;9.196;2022-12-11T07:42:57;25.03;;;13.40;;
5758;SDS011;2904;48.788;9.196;2022-12-11T07:45:23;28.13;;;12.60;;
5758;SDS011;2904;48.788;9.196;2022-12-11T07:47:50;23.87;;;12.13;;
5758;SDS011;2904;48.788;9.196;2022-12-11T07:50:16;20.73;;;12.07;;
5758;SDS011;2904;48.788;9.196;2022-12-11T07:52:42;23.60;;;12.53;;
5758;SDS011;2904;48.788;9.196;2022-12-11T07:55:08;24.47;;;12.27;;
5758;SDS011;2904;48.788;9.196;2022-12-11T07:57:34;24.20;;;12.87;;
5758;SDS011;2904;48.788;9.196;2022-12-11T08:00:00;22.53;;;12.00;;
5758;SDS011;2904;48.788;9.196;2022-12-11T08:02:26;23.47;;;12.60;;
5758;SDS011;2904;48.788;9.196;2022-12-11T08:04:52;22.83;;;12.10;;
5758;SDS011;2904;48.788;9.196;2022-12-11T08:07:17;21.73;;;12.07;;
5758;SDS011;2904;48.788;9.196;2022-12-11T08:09:43;21.43;;;11.73;;
5758;SDS011;2904;48.788;9.196;2022-12-11T08:12:08;27.23;;;12.57;;
5758;SDS011;2904;48.788;9.196;2022-12-11T08:14:34;26.13;;;11.53;;
5758;SDS011;2904;48.788;9.196;2022-12-11T08:17:00;67.43;;;32.67;;
5758;SDS011;2904;48.788;9.196;2022-12-11T08:19:26;34.97;;;16.47;;
5758;SDS011;2904;48.788;9.196;2022-12-11T08:21:52;25.73;;;14.73;;
5758;SDS011;2904;48.788;9.196;2022-12-11T08:24:18;23.03;;;12.50;;
5758;SDS011;2904;48.788;9.196;2022-12-11T08:26:44;22.30;;;11.83;;
5758;SDS011;2904;48.788;9.196;2022-12-11T08:29:11;21.07;;;11.53;;
5758;SDS011;2904;48.788;9.196;2022-12-11T08:31:37;21.87;;;11.80;;
5758;SDS011;2904;48.788;9.196;2022-12-11T08:34:04;26.37;;;11.90;;
5758;SDS011;2904;48.788;9.196;2022-12-11T08:36:30;22.17;;;11.53;;
5758;SDS011;2904;48.788;9.196;2022-12-11T08:38:56;20.63;;;11.57;;
5758;SDS011;2904;48.788;9.196;2022-12-11T08:41:22;21.27;;;11.13;;
5758;SDS011;2904;48.788;9.196;2022-12-11T08:43:53;21.10;;;12.33;;
5758;SDS011;2904;48.788;9.196;2022-12-11T08:46:20;19.17;;;10.97;;
5758;SDS011;2904;48.788;9.196;2022-12-11T08:48:47;22.43;;;11.77;;
5758;SDS011;2904;48.788;9.196;2022-12-11T08:51:19;22.07;;;11.87;;
5758;SDS011;2904;48.788;9.196;2022-12-11T08:53:47;23.13;;;12.17;;
5758;SDS011;2904;48.788;9.196;2022-12-11T08:56:15;21.67;;;11.63;;
5758;SDS011;2904;48.788;9.196;2022-12-11T08:58:43;22.67;;;11.90;;
5758;SDS011;2904;48.788;9.196;2022-12-11T09:01:11;21.27;;;11.53;;
5758;SDS011;2904;48.788;9.196;2022-12-11T09:03:39;23.00;;;11.87;;
5758;SDS011;2904;48.788;9.196;2022-12-11T09:06:06;21.40;;;11.63;;
5758;SDS011;2904;48.788;9.196;2022-12-11T09:08:33;22.13;;;11.63;;
5758;SDS011;2904;48.788;9.196;2022-12-11T09:11:03;22.10;;;11.57;;
5758;SDS011;2904;48.788;9.196;2022-12-11T09:13:33;22.30;;;12.50;;
5758;SDS011;2904;48.788;9.196;2022-12-11T09:15:59;21.20;;;12.07;;
5758;SDS011;2904;48.788;9.196;2022-12-11T09:18:27;21.23;;;11.67;;
5758;SDS011;2904;48.788;9.196;2022-12-11T09:20:57;21.73;;;12.07;;
5758;SDS011;2904;48.788;9.196;2022-12-11T09:23:27;25.40;;;13.13;;
5758;SDS011;2904;48.788;9.196;2022-12-11T09:25:53;33.53;;;16.67;;
5758;SDS011;2904;48.788;9.196;2022-12-11T09:28:20;27.83;;;13.80;;
5758;SDS011;2904;48.788;9.196;2022-12-11T09:30:45;26.73;;;12.10;;
5758;SDS011;2904;48.788;9.196;2022-12-11T09:33:11;21.07;;;11.00;;
5758;SDS011;2904;48.788;9.196;2022-12-11T09:35:37;21.87;;;10.53;;
5758;SDS011;2904;48.788;9.196;2022-12-11T09:38:03;21.97;;;11.90;;
5758;SDS011;2904;48.788;9.196;2022-12-11T09:40:28;21.73;;;11.53;;
5758;SDS011;2904;48.788;9.196;2022-12-11T09:43:01;23.57;;;12.53;;
5758;SDS011;2904;48.788;9.196;2022-12-11T09:45:33;24.00;;;12.53;;
5758;SDS011;2904;48.788;9.196;2022-12-11T09:47:59;26.17;;;13.10;;
5758;SDS011;2904;48.788;9.196;2022-12-11T09:50:27;23.03;;;12.67;;
5758;SDS011;2904;48.788;9.196;2022-12-11T09:56:51;25.50;;;13.73;;
5758;SDS011;2904;48.788;9.196;2022-12-11T10:10:06;26.13;;;12.97;;
5758;SDS011;2904;48.788;9.196;2022-12-11T10:12:48;26.93;;;13.43;;
5758;SDS011;2904;48.788;9.196;2022-12-11T10:18:18;25.00;;;13.87;;
5758;SDS011;2904;48.788;9.196;2022-12-11T10:20:48;26.67;;;14.97;;
5758;SDS011;2904;48.788;9.196;2022-12-11T10:23:37;28.93;;;14.63;;
5758;SDS011;2904;48.788;9.196;2022-12-11T10:26:18;25.63;;;13.43;;
5758;SDS011;2904;48.788;9.196;2022-12-11T10:28:45;24.93;;;13.70;;
5758;SDS011;2904;48.788;9.196;2022-12-11T10:31:17;26.23;;;14.40;;
5758;SDS011;2904;48.788;9.196;2022-12-11T10:34:00;26.63;;;13.80;;
5758;SDS011;2904;48.788;9.196;2022-12-11T10:36:31;25.63;;;14.27;;
5758;SDS011;2904;48.788;9.196;2022-12-11T10:39:01;27.07;;;14.13;;
5758;SDS011;2904;48.788;9.196;2022-12-11T10:41:38;27.03;;;14.27;;
5758;SDS011;2904;48.788;9.196;2022-12-11T10:44:15;26.70;;;14.00;;
5758;SDS011;2904;48.788;9.196;2022-12-11T10:46:44;27.67;;;13.73;;
5758;SDS011;2904;48.788;9.196;2022-12-11T10:49:21;27.67;;;14.85;;
5758;SDS011;2904;48.788;9.196;2022-12-11T10:51:49;24.70;;;13.97;;
5758;SDS011;2904;48.788;9.196;2022-12-11T10:58:17;25.47;;;13.50;;
5758;SDS011;2904;48.788;9.196;2022-12-11T11:00:45;30.17;;;14.33;;
5758;SDS011;2904;48.788;9.196;2022-12-11T11:03:27;26.80;;;13.73;;
5758;SDS011;2904;48.788;9.196;2022-12-11T11:06:03;25.50;;;14.37;;
5758;SDS011;2904;48.788;9.196;2022-12-11T11:08:37;44.13;;;21.47;;
5758;SDS011;2904;48.788;9.196;2022-12-11T11:11:19;28.30;;;14.67;;
5758;SDS011;2904;48.788;9.196;2022-12-11T11:13:47;29.37;;;14.63;;
5758;SDS011;2904;48.788;9.196;2022-12-11T11:16:14;24.47;;;13.87;;
5758;SDS011;2904;48.788;9.196;2022-12-11T11:18:48;23.87;;;13.30;;
5758;SDS011;2904;48.788;9.196;2022-12-11T11:21:20;30.60;;;14.87;;
5758;SDS011;2904;48.788;9.196;2022-12-11T11:23:48;32.63;;;15.97;;
5758;SDS011;2904;48.788;9.196;2022-12-11T11:26:15;27.70;;;13.40;;
5758;SDS011;2904;48.788;9.196;2022-12-11T11:28:46;25.37;;;13.40;;
5758;SDS011;2904;48.788;9.196;2022-12-11T11:31:17;24.70;;;13.60;;
5758;SDS011;2904;48.788;9.196;2022-12-11T11:36:54;26.57;;;13.77;;
5758;SDS011;2904;48.788;9.196;2022-12-11T11:39:30;25.57;;;13.23;;
5758;SDS011;2904;48.788;9.196;2022-12-11T11:42:14;25.80;;;13.47;;
5758;SDS011;2904;48.788;9.196;2022-12-11T11:45:01;27.50;;;13.83;;
5758;SDS011;2904;48.788;9.196;2022-12-11T11:47:41;25.27;;;14.07;;
5758;SDS011;2904;48.788;9.196;2022-12-11T11:50:17;24.40;;;13.00;;
5758;SDS011;2904;48.788;9.196;2022-12-11T11:52:50;23.80;;;13.27;;
5758;SDS011;2904;48.788;9.196;2022-12-11T11:55:36;24.63;;;13.40;;
5758;SDS011;2904;48.788;9.196;2022-12-11T11:59:29;26.17;;;13.00;;
5758;SDS011;2904;48.788;9.196;2022-12-11T12:02:12;24.73;;;13.33;;
5758;SDS011;2904;48.788;9.196;2022-12-11T12:04:40;23.57;;;13.00;;
5758;SDS011;2904;48.788;9.196;2022-12-11T12:07:17;23.50;;;13.13;;
5758;SDS011;2904;48.788;9.196;2022-12-11T12:10:11;24.80;;;13.17;;
5758;SDS011;2904;48.788;9.196;2022-12-11T12:14:29;25.37;;;13.03;;
5758;SDS011;2904;48.788;9.196;2022-12-11T12:17:04;22.87;;;13.00;;
5758;SDS011;2904;48.788;9.196;2022-12-11T12:19:54;26.63;;;13.43;;
5758;SDS011;2904;48.788;9.196;2022-12-11T12:40:22;26.03;;;12.70;;
5758;SDS011;2904;48.788;9.196;2022-12-11T12:49:52;27.60;;;13.77;;
5758;SDS011;2904;48.788;9.196;2022-12-11T12:52:33;44.77;;;21.13;;
5758;SDS011;2904;48.788;9.196;2022-12-11T12:55:02;31.23;;;15.17;;
5758;SDS011;2904;48.788;9.196;2022-12-11T12:58:05;30.90;;;15.03;;
5758;SDS011;2904;48.788;9.196;2022-12-11T13:00:41;41.70;;;19.43;;
5758;SDS011;2904;48.788;9.196;2022-12-11T13:03:12;28.40;;;14.70;;
5758;SDS011;2904;48.788;9.196;2022-12-11T13:09:54;24.57;;;12.97;;
5758;SDS011;2904;48.788;9.196;2022-12-11T13:12:27;25.90;;;14.17;;
5758;SDS011;2904;48.788;9.196;2022-12-11T13:15:22;27.47;;;14.43;;
5758;SDS011;2904;48.788;9.196;2022-12-11T13:17:50;34.53;;;14.97;;
5758;SDS011;2904;48.788;9.196;2022-12-11T13:20:17;30.20;;;14.10;;
5758;SDS011;2904;48.788;9.196;2022-12-11T13:22:55;28.90;;;14.73;;
5758;SDS011;2904;48.788;9.196;2022-12-11T13:25:50;24.73;;;13.60;;
5758;SDS011;2904;48.788;9.196;2022-12-11T13:31:35;25.37;;;13.87;;
5758;SDS011;2904;48.788;9.196;2022-12-11T13:34:19;26.93;;;14.80;;
5758;SDS011;2904;48.788;9.196;2022-12-11T13:36:48;28.03;;;15.23;;
5758;SDS011;2904;48.788;9.196;2022-12-11T13:39:25;31.03;;;15.77;;
5758;SDS011;2904;48.788;9.196;2022-12-11T13:41:56;32.17;;;15.87;;
5758;SDS011;2904;48.788;9.196;2022-12-11T13:44:38;36.80;;;16.60;;
5758;SDS011;2904;48.788;9.196;2022-12-11T13:47:09;29.30;;;15.90;;
5758;SDS011;2904;48.788;9.196;2022-12-11T13:49:54;29.73;;;15.47;;
5758;SDS011;2904;48.788;9.196;2022-12-11T13:52:30;34.97;;;16.30;;
5758;SDS011;2904;48.788;9.196;2022-12-11T13:54:56;37.30;;;19.23;;
5758;SDS011;2904;48.788;9.196;2022-12-11T13:57:26;35.00;;;16.70;;
5758;SDS011;2904;48.788;9.196;2022-12-11T13:59:55;29.30;;;15.07;;
5758;SDS011;2904;48.788;9.196;2022-12-11T14:02:28;28.10;;;14.93;;
5758;SDS011;2904;48.788;9.196;2022-12-11T14:05:05;30.47;;;15.27;;
5758;SDS011;2904;48.788;9.196;2022-12-11T14:07:37;26.00;;;13.33;;
5758;SDS011;2904;48.788;9.196;2022-12-11T14:10:08;31.53;;;15.10;;
5758;SDS011;2904;48.788;9.196;2022-12-11T14:12:42;37.50;;;17.23;;
5758;SDS011;2904;48.788;9.196;2022-12-11T14:15:16;32.83;;;15.40;;
5758;SDS011;2904;48.788;9.196;2022-12-11T14:17:42;29.03;;;15.50;;
5758;SDS011;2904;48.788;9.196;2022-12-11T14:20:15;31.43;;;15.27;;
5758;SDS011;2904;48.788;9.196;2022-12-11T14:23:02;30.20;;;15.07;;
5758;SDS011;2904;48.788;9.196;2022-12-11T14:25:58;33.73;;;15.57;;
5758;SDS011;2904;48.788;9.196;2022-12-11T14:28:27;32.90;;;15.47;;
5758;SDS011;2904;48.788;9.196;2022-12-11T14:30:56;34.70;;;15.77;;
5758;SDS011;2904;48.788;9.196;2022-12-11T14:33:27;36.93;;;17.37;;
5758;SDS011;2904;48.788;9.196;2022-12-11T14:35:58;49.63;;;22.93;;
5758;SDS011;2904;48.788;9.196;2022-12-11T14:38:26;36.63;;;16.43;;
5758;SDS011;2904;48.788;9.196;2022-12-11T14:40:57;39.70;;;18.47;;
5758;SDS011;2904;48.788;9.196;2022-12-11T14:43:32;33.17;;;16.30;;
5758;SDS011;2904;48.788;9.196;2022-12-11T14:46:14;30.47;;;15.20;;
5758;SDS011;2904;48.788;9.196;2022-12-11T14:48:44;33.13;;;15.77;;
5758;SDS011;2904;48.788;9.196;2022-12-11T14:51:16;34.40;;;16.27;;
5758;SDS011;2904;48.788;9.196;2022-12-11T14:53:45;32.77;;;15.47;;
5758;SDS011;2904;48.788;9.196;2022-12-11T14:56:17;36.20;;;16.00;;
5758;SDS011;2904;48.788;9.196;2022-12-11T14:58:49;34.63;;;15.47;;
5758;SDS011;2904;48.788;9.196;2022-12-11T15:01:28;30.63;;;14.67;;
5758;SDS011;2904;48.788;9.196;2022-12-11T15:04:14;34.30;;;16.17;;
5758;SDS011;2904;48.788;9.196;2022-12-11T15:06:51;33.63;;;16.07;;
5758;SDS011;2904;48.788;9.196;2022-12-11T15:09:23;32.00;;;15.93;;
5758;SDS011;2904;48.788;9.196;2022-12-11T15:11:49;31.93;;;15.63;;
5758;SDS011;2904;48.788;9.196;2022-12-11T15:14:17;36.07;;;16.63;;
5758;SDS011;2904;48.788;9.196;2022-12-11T15:16:44;32.07;;;15.57;;
5758;SDS011;2904;48.788;9.196;2022-12-11T15:19:46;36.20;;;16.20;;
5758;SDS011;2904;48.788;9.196;2022-12-11T15:22:12;34.70;;;15.43;;
5758;SDS011;2904;48.788;9.196;2022-12-11T15:24:41;32.10;;;15.07;;
5758;SDS011;2904;48.788;9.196;2022-12-11T15:27:25;30.97;;;15.20;;
5758;SDS011;2904;48.788;9.196;2022-12-11T15:30:13;42.40;;;18.20;;
5758;SDS011;2904;48.788;9.196;2022-12-11T15:36:30;29.80;;;14.37;;
5758;SDS011;2904;48.788;9.196;2022-12-11T15:38:58;32.23;;;14.53;;
5758;SDS011;2904;48.788;9.196;2022-12-11T15:41:24;32.87;;;15.17;;
5758;SDS011;2904;48.788;9.196;2022-12-11T15:43:51;32.23;;;15.57;;
5758;SDS011;2904;48.788;9.196;2022-12-11T15:46:19;31.80;;;15.40;;
5758;SDS011;2904;48.788;9.196;2022-12-11T15:48:46;34.67;;;16.20;;
5758;SDS011;2904;48.788;9.196;2022-12-11T15:51:13;34.63;;;18.70;;
5758;SDS011;2904;48.788;9.196;2022-12-11T15:53:41;31.10;;;15.47;;
5758;SDS011;2904;48.788;9.196;2022-12-11T15:56:16;31.83;;;15.60;;
5758;SDS011;2904;48.788;9.196;2022-12-11T15:58:43;34.93;;;16.13;;
5758;SDS011;2904;48.788;9.196;2022-12-11T16:01:09;31.43;;;15.93;;
5758;SDS011;2904;48.788;9.196;2022-12-11T16:03:35;34.10;;;17.33;;
5758;SDS011;2904;48.788;9.196;2022-12-11T16:06:01;37.13;;;16.90;;
5758;SDS011;2904;48.788;9.196;2022-12-11T16:08:27;39.23;;;17.13;;
5758;SDS011;2904;48.788;9.196;2022-12-11T16:10:53;36.87;;;17.67;;
5758;SDS011;2904;48.788;9.196;2022-12-11T16:13:20;45.17;;;19.70;;
5758;SDS011;2904;48.788;9.196;2022-12-11T16:15:47;42.50;;;19.27;;
5758;SDS011;2904;48.788;9.196;2022-12-11T16:18:15;41.60;;;18.50;;
5758;SDS011;2904;48.788;9.196;2022-12-11T16:20:43;40.47;;;18.60;;
5758;SDS011;2904;48.788;9.196;2022-12-11T16:23:10;41.13;;;18.67;;
5758;SDS011;2904;48.788;9.196;2022-12-11T16:25:37;41.37;;;20.03;;